Time;durP1;ratioP1;P1;durP2;ratioP2;P2;SDS_P1;SDS_P2;PMS_P1;PMS_P2;Temp;Humidity;BMP_temperature;BMP_pressure;BME280_temperature;BME280_humidity;BME280_pressure;Samples;Min_cycle;Max_cycle;Signal;HPM_P1;HPM_P2
2022/05/23 00:02:24;;;;;;;;;4.00;4.00;22.30;99.90;;;;;;5021378;28;8873;-67
2022/05/23 00:04:56;;;;;;;;;5.00;4.25;22.30;99.90;;;;;;5016910;28;8870;-66
2022/05/23 00:07:35;;;;;;;;;4.25;4.25;22.40;99.90;;;;;;5024033;28;8860;-68
2022/05/23 00:10:06;;;;;;;;;8.25;7.25;22.50;99.90;;;;;;5018881;28;9519;-68
2022/05/23 00:12:37;;;;;;;;;7.75;5.50;22.50;99.90;;;;;;5018903;28;8837;-67
2022/05/23 00:15:14;;;;;;;;;4.75;4.75;22.40;99.90;;;;;;5020357;28;8875;-68
2022/05/23 00:17:45;;;;;;;;;3.25;2.25;22.40;99.90;;;;;;5022542;28;8849;-68
2022/05/23 00:20:22;;;;;;;;;7.00;5.00;22.50;99.90;;;;;;5021297;28;9568;-67
2022/05/23 00:22:54;;;;;;;;;7.00;5.50;22.50;99.90;;;;;;5020159;28;8899;-68
2022/05/23 00:25:26;;;;;;;;;4.50;4.00;22.40;99.90;;;;;;5020267;28;8891;-68
2022/05/23 00:27:59;;;;;;;;;4.25;4.25;22.40;99.90;;;;;;5002582;28;8984;-68
2022/05/23 00:30:31;;;;;;;;;6.00;4.00;22.40;99.90;;;;;;5020173;28;8849;-67
2022/05/23 00:35:54;;;;;;;;;5.00;3.50;22.50;99.90;;;;;;5017381;28;8856;-68
2022/05/23 00:38:24;;;;;;;;;5.50;4.75;22.50;99.90;;;;;;5024934;28;8859;-67
2022/05/23 00:44:11;;;;;;;;;6.25;3.75;22.30;99.90;;;;;;5015994;28;8848;-67
2022/05/23 00:47:01;;;;;;;;;3.75;2.00;22.30;99.90;;;;;;5013184;28;8832;-67
2022/05/23 00:49:38;;;;;;;;;2.00;2.00;22.30;99.90;;;;;;5000243;28;8849;-67
2022/05/23 00:52:20;;;;;;;;;7.75;5.00;22.30;99.90;;;;;;5018823;28;8848;-67
2022/05/23 00:54:54;;;;;;;;;8.50;8.50;22.10;99.90;;;;;;5019958;28;8960;-67
2022/05/23 00:57:36;;;;;;;;;5.00;4.75;22.20;99.90;;;;;;5019117;28;8801;-67
2022/05/23 01:00:08;;;;;;;;;8.25;8.25;22.20;99.90;;;;;;5021856;28;8837;-69
2022/05/23 01:02:47;;;;;;;;;6.50;6.50;22.10;99.90;;;;;;5015632;28;8880;-69
2022/05/23 01:05:19;;;;;;;;;6.75;6.75;22.10;99.90;;;;;;5031277;28;8837;-68
2022/05/23 01:07:52;;;;;;;;;7.00;5.75;22.00;99.90;;;;;;5008673;28;8822;-68
2022/05/23 01:10:24;;;;;;;;;7.00;5.75;21.90;99.90;;;;;;5019586;28;8817;-68
2022/05/23 01:12:58;;;;;;;;;6.00;6.00;21.90;99.90;;;;;;5015681;28;8884;-69
2022/05/23 01:15:30;;;;;;;;;6.33;5.00;21.80;99.90;;;;;;5020341;28;9572;-68
2022/05/23 01:18:03;;;;;;;;;7.25;6.50;21.70;99.90;;;;;;5017756;28;9026;-68
2022/05/23 01:20:34;;;;;;;;;5.67;5.67;21.60;99.90;;;;;;5019192;28;8893;-68
2022/05/23 01:23:12;;;;;;;;;9.00;7.00;21.60;99.90;;;;;;5018890;28;9037;-67
2022/05/23 01:26:04;;;;;;;;;5.25;5.25;21.60;99.90;;;;;;5013534;28;9023;-68
2022/05/23 01:28:44;;;;;;;;;8.00;6.33;21.50;99.90;;;;;;5016909;28;8841;-68
2022/05/23 01:31:35;;;;;;;;;8.00;7.00;21.40;99.90;;;;;;5017795;28;9105;-69
2022/05/23 01:34:15;;;;;;;;;5.67;5.67;21.40;99.90;;;;;;5015497;28;9025;-68
2022/05/23 01:37:00;;;;;;;;;8.00;6.00;21.20;99.90;;;;;;5020240;28;9161;-68
2022/05/23 01:39:38;;;;;;;;;6.67;6.67;21.10;99.90;;;;;;4999044;28;9256;-69
2022/05/23 01:42:10;;;;;;;;;6.33;6.33;21.00;99.90;;;;;;5019398;28;9169;-67
2022/05/23 01:44:40;;;;;;;;;9.33;7.00;21.10;99.90;;;;;;5015588;28;9194;-67
2022/05/23 01:47:21;;;;;;;;;8.00;8.00;21.00;99.90;;;;;;5020734;28;9160;-68
2022/05/23 01:50:01;;;;;;;;;11.67;7.67;21.00;99.90;;;;;;5021586;28;9335;-68
2022/05/23 01:52:45;;;;;;;;;7.33;7.33;21.00;99.90;;;;;;5016788;28;9198;-69
2022/05/23 01:55:19;;;;;;;;;7.00;7.00;20.90;99.90;;;;;;5004771;28;9362;-69
2022/05/23 01:58:14;;;;;;;;;8.00;8.00;21.00;99.90;;;;;;5016212;28;9325;-68
2022/05/23 02:03:42;;;;;;;;;6.33;4.33;20.60;99.90;;;;;;5022954;28;10309;-69
2022/05/23 02:06:13;;;;;;;;;8.33;8.33;20.70;99.90;;;;;;5013116;28;9409;-70
2022/05/23 02:08:47;;;;;;;;;8.00;8.00;20.70;99.90;;;;;;5008753;28;9372;-70
2022/05/23 02:11:23;;;;;;;;;5.33;5.33;20.70;99.90;;;;;;5014525;28;9760;-70
2022/05/23 02:13:57;;;;;;;;;7.00;7.00;20.60;99.90;;;;;;5036428;28;9458;-70
2022/05/23 02:16:38;;;;;;;;;6.67;5.33;20.60;99.90;;;;;;4997454;28;9506;-70
2022/05/23 02:19:08;;;;;;;;;7.00;5.33;20.60;99.90;;;;;;5011301;28;9636;-69
2022/05/23 02:21:37;;;;;;;;;4.00;4.00;20.30;99.90;;;;;;4999177;28;9543;-70
2022/05/23 02:24:08;;;;;;;;;8.33;8.33;20.40;99.90;;;;;;5019102;28;10299;-70
2022/05/23 02:26:40;;;;;;;;;6.67;6.67;20.40;99.90;;;;;;5017454;28;9462;-71
2022/05/23 02:29:23;;;;;;;;;6.25;6.25;20.30;99.90;;;;;;5002050;28;9678;-70
2022/05/23 02:31:54;;;;;;;;;9.00;8.25;20.30;99.90;;;;;;5022026;28;9733;-69
2022/05/23 02:34:25;;;;;;;;;6.75;6.75;20.20;99.90;;;;;;5000387;28;9724;-69
2022/05/23 02:36:57;;;;;;;;;6.33;6.33;20.20;99.90;;;;;;5018383;28;9709;-70
2022/05/23 02:40:00;;;;;;;;;7.00;7.00;20.10;99.90;;;;;;5020806;28;9566;-70
2022/05/23 02:42:33;;;;;;;;;7.25;7.25;20.10;99.90;;;;;;5015015;28;9228;-70
2022/05/23 02:45:07;;;;;;;;;8.67;7.00;20.00;99.90;;;;;;5019857;28;9762;-71
2022/05/23 02:47:45;;;;;;;;;8.25;7.00;20.00;99.90;;;;;;5017387;28;9553;-70
2022/05/23 02:50:16;;;;;;;;;8.00;6.67;20.00;99.90;;;;;;4993997;28;9543;-70
2022/05/23 02:52:49;;;;;;;;;7.75;7.75;19.90;99.90;;;;;;5000723;28;9784;-71
2022/05/23 02:55:40;;;;;;;;;8.00;6.75;19.80;99.90;;;;;;5017059;28;9837;-70
2022/05/23 02:58:10;;;;;;;;;7.25;7.25;19.70;99.90;;;;;;5012898;28;9554;-69
2022/05/23 03:00:41;;;;;;;;;7.00;6.25;19.60;99.90;;;;;;5021214;28;9770;-71
2022/05/23 03:03:11;;;;;;;;;7.00;7.00;19.50;99.90;;;;;;5017487;28;9726;-70
2022/05/23 03:05:53;;;;;;;;;8.50;8.50;19.40;99.90;;;;;;5017342;28;9677;-70
2022/05/23 03:08:25;;;;;;;;;7.50;6.25;19.60;99.90;;;;;;5010705;28;9902;-70
2022/05/23 03:10:59;;;;;;;;;8.00;6.25;19.50;99.90;;;;;;5015304;28;9922;-70
2022/05/23 03:13:34;;;;;;;;;6.25;6.25;19.60;99.90;;;;;;5015252;28;10172;-70
2022/05/23 03:16:13;;;;;;;;;5.25;5.25;19.60;99.90;;;;;;5013837;28;9850;-69
2022/05/23 03:18:48;;;;;;;;;8.75;7.00;19.60;99.90;;;;;;5014399;28;10037;-70
2022/05/23 03:27:01;;;;;;;;;6.75;6.00;19.50;99.90;;;;;;5014876;28;10024;-70
2022/05/23 03:29:39;;;;;;;;;8.00;7.00;19.40;99.90;;;;;;5015911;28;9887;-70
2022/05/23 03:32:15;;;;;;;;;4.50;4.50;19.40;99.90;;;;;;5016644;28;10108;-70
2022/05/23 03:34:48;;;;;;;;;5.00;5.00;19.40;99.90;;;;;;5016789;28;9951;-70
2022/05/23 03:37:25;;;;;;;;;5.00;5.00;19.30;99.90;;;;;;5010971;28;10079;-72
2022/05/23 03:39:58;;;;;;;;;4.25;4.25;19.30;99.90;;;;;;5018940;28;11019;-70
2022/05/23 03:42:32;;;;;;;;;5.50;5.50;19.20;99.90;;;;;;5008131;28;10110;-70
2022/05/23 03:45:09;;;;;;;;;7.25;5.50;19.20;99.90;;;;;;5015413;28;10106;-70
2022/05/23 03:47:44;;;;;;;;;5.25;5.25;19.10;99.90;;;;;;5017878;28;10456;-69
2022/05/23 03:50:16;;;;;;;;;5.75;5.75;19.10;99.90;;;;;;4993420;28;10417;-70
2022/05/23 03:52:48;;;;;;;;;4.75;4.00;19.00;99.90;;;;;;5014881;28;10632;-70
2022/05/23 03:55:29;;;;;;;;;9.00;7.75;19.00;99.90;;;;;;5029972;28;10471;-69
2022/05/23 03:58:22;;;;;;;;;6.75;5.75;19.00;99.90;;;;;;4999188;28;10406;-70
2022/05/23 04:01:23;;;;;;;;;10.75;9.25;19.00;99.90;;;;;;5012660;28;10717;-69
2022/05/23 04:03:59;;;;;;;;;9.50;9.50;18.90;99.90;;;;;;5014313;28;10657;-70
2022/05/23 04:06:38;;;;;;;;;10.25;10.25;18.90;99.90;;;;;;5015930;28;10598;-71
2022/05/23 04:09:08;;;;;;;;;10.00;7.00;18.80;99.90;;;;;;5007218;28;10725;-70
2022/05/23 04:11:47;;;;;;;;;7.25;7.25;18.80;99.90;;;;;;5015878;28;10697;-69
2022/05/23 04:14:20;;;;;;;;;11.25;9.00;18.70;99.90;;;;;;4999593;28;11603;-70
2022/05/23 04:16:54;;;;;;;;;6.75;5.25;18.60;99.90;;;;;;5018358;28;10882;-71
2022/05/23 04:19:34;;;;;;;;;10.00;10.00;18.60;99.90;;;;;;5021495;28;10964;-70
2022/05/23 04:22:31;;;;;;;;;13.50;13.50;18.60;99.90;;;;;;5014460;28;11632;-70
2022/05/23 04:25:07;;;;;;;;;11.00;10.50;18.50;99.90;;;;;;4996690;28;11258;-70
2022/05/23 04:27:38;;;;;;;;;11.75;11.25;18.50;99.90;;;;;;5015985;28;11720;-70
2022/05/23 04:30:12;;;;;;;;;10.75;10.75;18.40;99.90;;;;;;4994758;28;10837;-71
2022/05/23 04:35:38;;;;;;;;;6.75;6.75;18.30;99.90;;;;;;5020952;28;11083;-72
2022/05/23 04:38:11;;;;;;;;;6.75;6.25;18.30;99.90;;;;;;5019056;28;10978;-71
2022/05/23 04:40:45;;;;;;;;;6.00;6.00;18.20;99.90;;;;;;5001327;28;10993;-70
2022/05/23 04:43:38;;;;;;;;;5.25;3.75;18.20;99.90;;;;;;5017421;28;10680;-71
2022/05/23 04:46:11;;;;;;;;;9.00;8.25;18.20;99.90;;;;;;5002943;28;10510;-72
2022/05/23 04:51:53;;;;;;;;;8.50;7.00;18.20;99.90;;;;;;5023953;28;10641;-72
2022/05/23 04:54:33;;;;;;;;;8.75;7.00;18.10;99.90;;;;;;5013413;28;10655;-70
2022/05/23 04:57:07;;;;;;;;;8.50;7.50;18.00;99.90;;;;;;4995746;28;10548;-72
2022/05/23 04:59:39;;;;;;;;;8.50;8.25;17.90;99.90;;;;;;5014856;28;10664;-71
2022/05/23 05:02:21;;;;;;;;;6.00;5.25;18.00;99.90;;;;;;5012840;28;10510;-69
2022/05/23 05:04:56;;;;;;;;;7.25;7.25;18.00;99.90;;;;;;4999853;28;10776;-69
2022/05/23 05:07:33;;;;;;;;;8.00;6.50;18.00;99.90;;;;;;5009788;28;10779;-69
2022/05/23 05:10:06;;;;;;;;;5.00;5.00;18.00;99.90;;;;;;4998852;28;10761;-70
2022/05/23 05:12:41;;;;;;;;;5.75;5.75;17.90;99.90;;;;;;5024037;28;11380;-69
2022/05/23 05:15:15;;;;;;;;;8.25;7.25;17.90;99.90;;;;;;5018704;28;10684;-69
2022/05/23 05:17:46;;;;;;;;;7.00;6.00;17.90;99.90;;;;;;5017267;28;10752;-69
2022/05/23 05:20:23;;;;;;;;;6.75;6.75;17.80;99.90;;;;;;5029854;28;10719;-68
2022/05/23 05:23:03;;;;;;;;;4.00;4.00;17.80;99.90;;;;;;5016852;28;10706;-70
2022/05/23 05:25:42;;;;;;;;;7.25;7.25;17.90;99.90;;;;;;5026300;28;10633;-69
2022/05/23 05:28:29;;;;;;;;;4.00;4.00;17.80;99.90;;;;;;5009503;28;11316;-63
2022/05/23 05:31:09;;;;;;;;;7.50;7.50;17.80;99.90;;;;;;5017014;28;10977;-63
2022/05/23 05:33:45;;;;;;;;;5.00;5.00;17.80;99.90;;;;;;5014524;28;10896;-69
2022/05/23 05:36:21;;;;;;;;;7.00;7.00;17.70;99.90;;;;;;5012853;28;10905;-67
2022/05/23 05:39:14;;;;;;;;;6.25;6.25;17.70;99.90;;;;;;5010633;28;10908;-70
2022/05/23 05:42:13;;;;;;;;;9.00;8.75;17.50;99.90;;;;;;5008566;28;10942;-69
2022/05/23 05:44:52;;;;;;;;;7.50;7.25;17.50;99.90;;;;;;5014033;28;11646;-69
2022/05/23 05:47:24;;;;;;;;;5.25;5.25;17.60;99.90;;;;;;4996757;28;11498;-67
2022/05/23 05:50:11;;;;;;;;;9.00;9.00;17.60;99.90;;;;;;5016852;28;11495;-70
2022/05/23 05:52:59;;;;;;;;;10.25;10.00;17.60;99.90;;;;;;4986450;28;11568;-70
2022/05/23 05:55:31;;;;;;;;;10.00;10.00;17.50;99.90;;;;;;5000830;28;11465;-68
2022/05/23 05:58:04;;;;;;;;;16.25;15.00;17.50;99.90;;;;;;5010640;28;13387;-70
2022/05/23 06:00:43;;;;;;;;;14.75;14.00;17.40;99.90;;;;;;4996531;28;11563;-70
2022/05/23 06:03:15;;;;;;;;;16.00;16.00;17.40;99.90;;;;;;4995613;28;11482;-69
2022/05/23 06:11:44;;;;;;;;;23.50;19.25;17.30;99.90;;;;;;5005388;28;11573;-70
2022/05/23 06:14:19;;;;;;;;;26.50;26.50;17.30;99.90;;;;;;5018035;28;12330;-71
2022/05/23 06:16:53;;;;;;;;;31.00;30.00;17.30;99.90;;;;;;5009819;28;11727;-68
2022/05/23 06:19:45;;;;;;;;;31.75;30.75;17.30;99.90;;;;;;5004485;28;11651;-67
2022/05/23 06:22:26;;;;;;;;;31.75;30.75;17.30;99.90;;;;;;5013108;28;11644;-67
2022/05/23 06:25:09;;;;;;;;;35.50;33.00;17.20;99.90;;;;;;5013947;28;12204;-67
2022/05/23 06:27:41;;;;;;;;;35.50;32.25;17.20;99.90;;;;;;5011672;28;11598;-66
2022/05/23 06:30:17;;;;;;;;;36.00;32.50;17.20;99.90;;;;;;5016521;28;11591;-67
2022/05/23 06:33:17;;;;;;;;;34.75;32.75;17.20;99.90;;;;;;5016583;28;12537;-65
2022/05/23 06:35:57;;;;;;;;;25.75;25.25;17.10;99.90;;;;;;5014964;28;11597;-66
2022/05/23 06:38:37;;;;;;;;;19.50;19.00;17.10;99.90;;;;;;5011485;28;11616;-67
2022/05/23 06:41:27;;;;;;;;;18.75;17.00;17.10;99.90;;;;;;5019849;28;11573;-69
2022/05/23 06:44:16;;;;;;;;;22.00;19.00;17.10;99.90;;;;;;4997359;28;11746;-69
2022/05/23 06:47:06;;;;;;;;;20.00;18.25;17.00;99.90;;;;;;5011365;28;12250;-69
2022/05/23 06:50:02;;;;;;;;;21.50;20.50;16.90;99.90;;;;;;4985917;28;12314;-67
2022/05/23 06:52:52;;;;;;;;;15.75;15.75;16.80;99.90;;;;;;5013770;28;11515;-69
2022/05/23 06:55:57;;;;;;;;;17.75;14.50;16.80;99.90;;;;;;5016425;28;11541;-68
2022/05/23 06:58:29;;;;;;;;;15.00;12.50;16.80;99.90;;;;;;5014902;28;11719;-63
2022/05/23 07:01:01;;;;;;;;;16.00;15.25;16.90;99.90;;;;;;4993340;28;11522;-65
2022/05/23 07:03:53;;;;;;;;;13.50;13.25;16.80;99.90;;;;;;5001196;28;11507;-68
2022/05/23 07:12:19;;;;;;;;;12.25;10.50;16.70;99.90;;;;;;5011057;28;11526;-67
2022/05/23 07:15:03;;;;;;;;;8.00;8.00;16.70;99.90;;;;;;5027663;28;11429;-69
2022/05/23 07:17:39;;;;;;;;;6.25;6.25;16.70;99.90;;;;;;5019565;28;11584;-68
2022/05/23 07:20:20;;;;;;;;;8.50;7.50;16.70;99.90;;;;;;5015006;28;11100;-67
2022/05/23 07:23:09;;;;;;;;;9.50;7.75;16.70;99.90;;;;;;5007511;28;11235;-68
2022/05/23 07:25:48;;;;;;;;;9.50;9.00;16.70;99.90;;;;;;4997748;28;10899;-68
2022/05/23 07:28:39;;;;;;;;;12.00;9.75;16.70;99.90;;;;;;5014901;28;10967;-63
2022/05/23 07:31:11;;;;;;;;;13.00;11.25;16.60;99.90;;;;;;4998006;28;11977;-69
2022/05/23 07:33:42;;;;;;;;;9.50;9.50;16.60;99.90;;;;;;5015078;28;12228;-66
2022/05/23 07:36:39;;;;;;;;;8.00;8.00;16.60;99.90;;;;;;5017156;28;11201;-69
2022/05/23 07:39:13;;;;;;;;;8.50;8.50;16.60;99.90;;;;;;5015787;28;11151;-68
2022/05/23 07:42:02;;;;;;;;;6.00;6.00;16.40;99.90;;;;;;5012702;28;11098;-68
2022/05/23 07:44:34;;;;;;;;;9.75;8.25;16.40;99.90;;;;;;5011717;28;11026;-69
2022/05/23 07:47:18;;;;;;;;;8.75;7.75;16.50;99.90;;;;;;5011794;28;11396;-68
2022/05/23 07:50:06;;;;;;;;;9.00;8.00;16.50;99.90;;;;;;4996015;28;11100;-70
2022/05/23 07:52:39;;;;;;;;;9.25;7.50;16.40;99.90;;;;;;5000291;28;11214;-68
2022/05/23 08:00:53;;;;;;;;;7.00;7.00;16.40;99.90;;;;;;5017098;28;11029;-68
2022/05/23 08:03:26;;;;;;;;;6.00;5.75;16.40;99.90;;;;;;4997097;28;11110;-68
2022/05/23 08:06:14;;;;;;;;;9.25;9.25;16.40;99.90;;;;;;5004718;28;11188;-69
2022/05/23 08:08:48;;;;;;;;;8.25;8.25;16.40;99.90;;;;;;5020728;28;11499;-69
2022/05/23 08:11:23;;;;;;;;;8.00;6.25;16.40;99.90;;;;;;5011359;28;11593;-69
2022/05/23 08:14:11;;;;;;;;;7.75;7.75;16.40;99.90;;;;;;5019750;28;11460;-69
2022/05/23 08:17:09;;;;;;;;;8.75;7.25;16.30;99.90;;;;;;5017394;28;11205;-68
2022/05/23 08:19:42;;;;;;;;;11.25;9.75;16.30;99.90;;;;;;5017830;28;11196;-69
2022/05/23 08:22:26;;;;;;;;;14.00;7.75;16.30;99.90;;;;;;5002280;28;11615;-69
2022/05/23 08:25:06;;;;;;;;;8.75;8.75;16.30;99.90;;;;;;5001546;28;11667;-69
2022/05/23 08:27:39;;;;;;;;;10.25;9.25;16.40;99.90;;;;;;5017975;28;11507;-68
2022/05/23 08:30:10;;;;;;;;;10.25;9.00;16.30;99.90;;;;;;5016688;28;12333;-69
2022/05/23 08:32:44;;;;;;;;;10.50;10.25;16.30;99.90;;;;;;5032186;28;12365;-69
2022/05/23 08:35:21;;;;;;;;;8.00;8.00;16.30;99.90;;;;;;5001111;28;11525;-69
2022/05/23 08:38:04;;;;;;;;;9.50;9.50;16.30;99.90;;;;;;5019606;28;12292;-70
2022/05/23 08:41:16;;;;;;;;;9.00;9.00;16.30;99.90;;;;;;5021118;28;11463;-69
2022/05/23 08:44:25;;;;;;;;;11.00;10.00;16.20;99.90;;;;;;5013575;28;11523;-69
2022/05/23 08:47:16;;;;;;;;;9.00;9.00;16.20;99.90;;;;;;5003387;28;11291;-71
2022/05/23 08:50:10;;;;;;;;;13.75;12.00;16.20;99.90;;;;;;5017546;28;11477;-70
2022/05/23 08:53:08;;;;;;;;;9.50;9.50;16.20;99.90;;;;;;5011867;28;11555;-70
2022/05/23 08:55:57;;;;;;;;;8.75;7.00;16.10;99.90;;;;;;4992767;28;11495;-68
2022/05/23 08:58:57;;;;;;;;;8.50;8.50;16.10;99.90;;;;;;5015515;28;11480;-69
2022/05/23 09:02:05;;;;;;;;;9.50;9.50;16.10;99.90;;;;;;5016511;28;12223;-68
2022/05/23 09:04:44;;;;;;;;;9.50;9.50;16.10;99.90;;;;;;5018988;28;11496;-69
2022/05/23 09:07:33;;;;;;;;;10.50;9.00;16.10;99.90;;;;;;4998916;28;11477;-69
2022/05/23 09:10:14;;;;;;;;;10.00;10.00;16.10;99.90;;;;;;5016673;28;11594;-68
2022/05/23 09:12:45;;;;;;;;;8.00;8.00;16.20;99.90;;;;;;5015695;28;12201;-69
2022/05/23 09:15:15;;;;;;;;;9.00;9.00;16.00;99.90;;;;;;5016212;28;11511;-69
2022/05/23 09:17:58;;;;;;;;;9.00;9.00;16.00;99.90;;;;;;5018616;28;11252;-69
2022/05/23 09:20:47;;;;;;;;;9.25;9.25;16.00;99.90;;;;;;5019236;28;11497;-69
2022/05/23 09:23:31;;;;;;;;;7.75;6.00;16.00;99.90;;;;;;5014541;28;11464;-69
2022/05/23 09:26:16;;;;;;;;;9.75;9.75;16.00;99.90;;;;;;5013593;28;11480;-69
2022/05/23 09:28:51;;;;;;;;;7.25;7.25;16.00;99.90;;;;;;5017970;28;11606;-68
2022/05/23 09:31:40;;;;;;;;;11.00;9.00;15.90;99.90;;;;;;5016970;28;11269;-69
2022/05/23 09:34:33;;;;;;;;;9.50;8.75;15.90;99.90;;;;;;5020134;28;11521;-69
2022/05/23 09:37:17;;;;;;;;;12.75;10.75;15.90;99.90;;;;;;5016013;28;12265;-69
2022/05/23 09:39:58;;;;;;;;;8.00;8.00;15.90;99.90;;;;;;5016379;28;11570;-68
2022/05/23 09:48:24;;;;;;;;;8.75;8.75;15.90;99.90;;;;;;5013668;28;11168;-69
2022/05/23 09:51:05;;;;;;;;;8.75;8.75;15.90;99.90;;;;;;5008336;28;11514;-69
2022/05/23 09:53:55;;;;;;;;;12.00;10.00;15.90;99.90;;;;;;5016089;28;11899;-69
2022/05/23 09:56:38;;;;;;;;;7.75;7.75;15.80;99.90;;;;;;5014663;28;11541;-68
2022/05/23 09:59:22;;;;;;;;;11.25;10.25;15.80;99.90;;;;;;5015766;28;11467;-70
2022/05/23 10:01:56;;;;;;;;;9.25;8.50;15.80;99.90;;;;;;5017813;28;11489;-68
2022/05/23 10:04:34;;;;;;;;;17.75;15.25;15.80;99.90;;;;;;4988257;28;11566;-68
2022/05/23 10:07:29;;;;;;;;;16.00;15.00;15.80;99.90;;;;;;5014754;28;11574;-69
2022/05/23 10:10:06;;;;;;;;;9.50;8.00;15.80;99.90;;;;;;5011667;28;11656;-69
2022/05/23 10:12:51;;;;;;;;;10.50;10.00;15.80;99.90;;;;;;5006142;28;12271;-69
2022/05/23 10:15:30;;;;;;;;;11.00;8.50;15.80;99.90;;;;;;5013751;28;11498;-67
2022/05/23 10:18:11;;;;;;;;;16.25;12.00;15.80;99.90;;;;;;5017907;28;11487;-68
2022/05/23 10:20:44;;;;;;;;;8.00;8.00;15.70;99.90;;;;;;5012765;28;11553;-69
2022/05/23 10:23:25;;;;;;;;;11.50;11.00;15.70;99.90;;;;;;5018242;28;12195;-68
2022/05/23 10:26:20;;;;;;;;;12.25;9.00;15.70;99.90;;;;;;5021766;28;12191;-68
2022/05/23 10:29:03;;;;;;;;;11.50;9.25;15.60;99.90;;;;;;5018545;28;11483;-67
2022/05/23 10:31:48;;;;;;;;;8.75;8.75;15.60;99.90;;;;;;5013476;28;11537;-68
2022/05/23 10:34:38;;;;;;;;;8.50;8.50;15.60;99.90;;;;;;5031717;28;11645;-68
2022/05/23 10:37:25;;;;;;;;;14.25;10.25;15.60;99.90;;;;;;4995372;28;11451;-68
2022/05/23 10:43:02;;;;;;;;;12.25;9.25;15.60;99.90;;;;;;5013813;28;12167;-68
2022/05/23 10:45:42;;;;;;;;;10.00;10.00;15.50;99.90;;;;;;5016730;28;11650;-68
2022/05/23 10:48:33;;;;;;;;;9.50;7.75;15.50;99.90;;;;;;5014042;28;11465;-69
2022/05/23 10:51:14;;;;;;;;;7.75;7.75;15.50;99.90;;;;;;5016998;28;11530;-69
2022/05/23 10:54:18;;;;;;;;;13.00;10.00;15.50;99.90;;;;;;5020086;28;11438;-68
2022/05/23 10:56:57;;;;;;;;;10.00;9.25;15.50;99.90;;;;;;4997432;28;11564;-69
2022/05/23 10:59:53;;;;;;;;;8.25;8.25;15.50;99.90;;;;;;5016049;28;11450;-68
2022/05/23 11:02:41;;;;;;;;;11.25;8.50;15.50;99.90;;;;;;5008651;28;11499;-70
2022/05/23 11:05:21;;;;;;;;;5.25;4.50;15.40;99.90;;;;;;5017106;28;11481;-68
2022/05/23 11:08:11;;;;;;;;;12.25;9.25;15.40;99.90;;;;;;5012974;28;11487;-68
2022/05/23 11:10:49;;;;;;;;;11.25;10.00;15.40;99.90;;;;;;4998146;28;11521;-68
2022/05/23 11:13:54;;;;;;;;;10.50;10.50;15.40;99.90;;;;;;5007216;28;11583;-67
2022/05/23 11:16:34;;;;;;;;;10.50;9.00;15.40;99.90;;;;;;5014540;28;11510;-67
2022/05/23 11:19:28;;;;;;;;;8.25;8.25;15.40;99.90;;;;;;5012094;28;11494;-69
2022/05/23 11:22:22;;;;;;;;;9.75;8.00;15.30;99.90;;;;;;5012972;28;11470;-68
2022/05/23 11:25:30;;;;;;;;;7.50;7.50;15.30;99.90;;;;;;4995444;28;11610;-69
2022/05/23 11:34:32;;;;;;;;;12.50;11.00;15.30;99.90;;;;;;5013863;28;11595;-69
2022/05/23 11:37:42;;;;;;;;;9.75;9.75;15.30;99.90;;;;;;5012551;28;11564;-68
2022/05/23 11:40:08;;;;;;;;;11.00;9.75;15.20;99.90;;;;;;5013424;28;11539;-68
2022/05/23 11:42:49;;;;;;;;;8.75;8.75;15.20;99.90;;;;;;5008998;28;11506;-68
2022/05/23 11:48:45;;;;;;;;;9.00;9.00;15.20;99.90;;;;;;5013197;28;11626;-67
2022/05/23 11:51:36;;;;;;;;;9.75;9.75;15.10;99.90;;;;;;5012152;28;11512;-69
2022/05/23 11:54:36;;;;;;;;;9.00;8.75;15.10;99.90;;;;;;5010829;28;11491;-70
2022/05/23 11:57:06;;;;;;;;;12.75;12.25;15.10;99.90;;;;;;5012248;28;12580;-68
2022/05/23 11:59:37;;;;;;;;;10.75;9.00;15.10;99.90;;;;;;5016740;28;11616;-69
2022/05/23 12:02:11;;;;;;;;;9.25;9.25;15.10;99.90;;;;;;5013434;28;11493;-68
2022/05/23 12:04:52;;;;;;;;;9.25;5.75;15.10;99.90;;;;;;5013099;28;11479;-68
2022/05/23 12:07:45;;;;;;;;;11.75;8.75;15.10;99.90;;;;;;4991571;28;11503;-67
2022/05/23 12:10:24;;;;;;;;;9.50;9.50;15.10;99.90;;;;;;5029740;28;11491;-69
2022/05/23 12:13:18;;;;;;;;;10.00;9.00;15.00;99.90;;;;;;5012809;28;11484;-68
2022/05/23 12:15:58;;;;;;;;;10.75;9.00;15.00;99.90;;;;;;5015562;28;11500;-68
2022/05/23 12:18:39;;;;;;;;;10.50;10.50;15.00;99.90;;;;;;4992832;28;11484;-67
2022/05/23 12:21:35;;;;;;;;;9.25;9.25;15.00;99.90;;;;;;4996806;28;11507;-69
2022/05/23 12:24:24;;;;;;;;;9.75;8.25;15.00;99.90;;;;;;5011059;28;11609;-68
2022/05/23 12:27:31;;;;;;;;;7.75;7.75;15.00;99.90;;;;;;5011828;28;11499;-68
2022/05/23 12:30:26;;;;;;;;;11.50;10.50;15.00;99.90;;;;;;5001680;28;11461;-68
2022/05/23 12:33:00;;;;;;;;;13.50;11.25;15.00;99.90;;;;;;5010788;28;11492;-68
2022/05/23 12:35:40;;;;;;;;;11.50;9.50;14.90;99.90;;;;;;5020088;28;11576;-68
2022/05/23 12:38:35;;;;;;;;;10.25;8.75;14.90;99.90;;;;;;5019282;28;11452;-69
2022/05/23 12:41:45;;;;;;;;;7.75;6.75;14.90;99.90;;;;;;5018949;28;11513;-68
2022/05/23 12:44:23;;;;;;;;;10.00;10.00;14.80;99.90;;;;;;5014004;28;12762;-68
2022/05/23 12:47:10;;;;;;;;;10.75;9.00;14.80;99.90;;;;;;5006449;28;11472;-69
2022/05/23 12:49:52;;;;;;;;;8.75;8.75;14.80;99.90;;;;;;5015147;28;11481;-69
2022/05/23 12:52:57;;;;;;;;;10.00;9.75;14.80;99.90;;;;;;5013763;28;11599;-69
2022/05/23 12:56:11;;;;;;;;;13.75;12.50;14.80;99.90;;;;;;5019070;28;11518;-69
2022/05/23 12:59:27;;;;;;;;;7.50;7.50;14.80;99.90;;;;;;5019922;28;11499;-69
2022/05/23 13:02:13;;;;;;;;;14.50;12.00;14.80;99.90;;;;;;5018532;28;11446;-69
2022/05/23 13:05:06;;;;;;;;;11.00;8.00;14.80;99.90;;;;;;5015759;28;11553;-68
2022/05/23 13:08:00;;;;;;;;;8.00;8.00;14.80;99.90;;;;;;5021617;28;11473;-69
2022/05/23 13:10:41;;;;;;;;;8.00;6.75;14.80;99.90;;;;;;5033071;28;11552;-69
2022/05/23 13:13:25;;;;;;;;;12.50;9.25;14.70;99.90;;;;;;5015417;28;11443;-68
2022/05/23 13:16:13;;;;;;;;;14.75;9.75;14.70;99.90;;;;;;5014186;28;11499;-67
2022/05/23 13:22:08;;;;;;;;;8.75;8.75;14.70;99.90;;;;;;4995885;28;11626;-67
2022/05/23 13:24:56;;;;;;;;;12.50;12.50;14.70;99.90;;;;;;5017309;28;11465;-67
2022/05/23 13:27:50;;;;;;;;;12.25;11.75;14.70;99.90;;;;;;5009237;28;11535;-68
2022/05/23 13:30:31;;;;;;;;;12.00;10.25;14.70;99.90;;;;;;5016516;28;11595;-66
2022/05/23 13:33:14;;;;;;;;;10.50;10.50;14.70;99.90;;;;;;5011903;28;12313;-66
2022/05/23 13:35:54;;;;;;;;;10.75;10.75;14.70;99.90;;;;;;5011493;28;12342;-66
2022/05/23 13:38:43;;;;;;;;;13.00;10.00;14.70;99.90;;;;;;5012539;28;11544;-66
2022/05/23 13:41:29;;;;;;;;;10.25;10.25;14.70;99.90;;;;;;5028476;28;12302;-67
2022/05/23 13:44:00;;;;;;;;;10.25;9.75;14.60;99.90;;;;;;5015057;28;11475;-67
2022/05/23 13:46:42;;;;;;;;;11.00;9.00;14.60;99.90;;;;;;5018173;28;11465;-67
2022/05/23 13:49:26;;;;;;;;;8.50;8.50;14.70;99.90;;;;;;5018756;28;11489;-66
2022/05/23 13:52:09;;;;;;;;;10.25;8.75;14.60;99.90;;;;;;5014921;28;11507;-67
2022/05/23 13:55:09;;;;;;;;;8.75;8.75;14.60;99.90;;;;;;5019372;28;11447;-68
2022/05/23 13:57:47;;;;;;;;;12.00;12.00;14.70;99.90;;;;;;4996067;28;11536;-66
2022/05/23 14:00:24;;;;;;;;;11.75;10.75;14.70;99.90;;;;;;5021699;28;11452;-66
2022/05/23 14:03:15;;;;;;;;;13.75;13.00;14.70;99.90;;;;;;5027367;28;11504;-66
2022/05/23 14:05:52;;;;;;;;;8.00;8.00;14.70;99.90;;;;;;4993361;28;11516;-66
2022/05/23 14:08:35;;;;;;;;;9.75;9.75;14.70;99.90;;;;;;5027089;28;11545;-67
2022/05/23 14:11:20;;;;;;;;;12.00;9.75;14.70;99.90;;;;;;5015115;28;11551;-66
2022/05/23 14:14:04;;;;;;;;;9.75;8.25;14.70;99.90;;;;;;5016347;28;11491;-67
2022/05/23 14:16:34;;;;;;;;;11.25;10.50;14.80;99.90;;;;;;5015370;28;11477;-66
2022/05/23 14:19:21;;;;;;;;;9.00;9.00;14.80;99.90;;;;;;5012995;28;12228;-66
2022/05/23 14:22:08;;;;;;;;;12.25;10.50;14.80;99.90;;;;;;5011886;28;11627;-68
2022/05/23 14:24:50;;;;;;;;;14.50;11.25;14.80;99.90;;;;;;4998151;28;11506;-68
2022/05/23 14:27:27;;;;;;;;;10.00;8.25;14.90;99.90;;;;;;5013791;28;11561;-67
2022/05/23 14:30:30;;;;;;;;;8.50;8.50;14.90;99.90;;;;;;5009053;28;11485;-65
2022/05/23 14:33:32;;;;;;;;;12.50;11.75;14.90;99.90;;;;;;5012086;28;11634;-66
2022/05/23 14:36:11;;;;;;;;;9.50;9.50;14.90;99.90;;;;;;4990860;28;11494;-65
2022/05/23 14:38:46;;;;;;;;;9.75;9.25;15.00;99.90;;;;;;5015713;28;12202;-65
2022/05/23 14:41:30;;;;;;;;;12.00;9.00;15.00;99.90;;;;;;5012386;28;12441;-66
2022/05/23 14:44:17;;;;;;;;;8.75;8.50;15.00;99.90;;;;;;4996931;28;11542;-67
2022/05/23 14:47:29;;;;;;;;;8.00;8.00;15.00;99.90;;;;;;5009398;28;12267;-64
2022/05/23 14:50:18;;;;;;;;;9.50;9.50;15.10;99.90;;;;;;5016975;28;12244;-64
2022/05/23 14:55:56;;;;;;;;;9.75;9.00;15.20;99.90;;;;;;5018559;28;11156;-66
2022/05/23 15:01:20;;;;;;;;;9.50;9.50;15.20;99.90;;;;;;5010282;28;11482;-66
2022/05/23 15:03:55;;;;;;;;;10.25;9.25;15.30;99.90;;;;;;5007901;28;11247;-67